Soaring Guidance
Issued by NWS Reno, NV

Home | Current Version | Previous Version | Text Only | Print | Product List | Glossary On
Versions: 1 2 3 4 5 6 7 8 9 10 11 12 13 14 15
000
UXUS97 KREV 291359
SRGREV

SOARING FORECAST
NATIONAL WEATHER SERVICE - RENO NV
700 AM PDT FRI MAY 29 2015

THIS SOARING FORECAST IS FOR THE EASTERN SIERRA AND WESTERN NEVADA
WITH SPECIFIC INDICES FOR THE GREATER RENO AREA.

THIS FORECAST IS PREPARED DAILY BY 700 AM AND IS NOT UPDATED.

FOR CURRENT FLIGHT CONDITIONS...FORECASTS...AND ADVISORIES...ACCESS
YOUR LOCAL BRIEFING OUTLET OR FLIGHT SERVICE STATION.

*******************************************************************
FORECASTED LOCAL INDICES FOR RENO:        TODAY     YESTERDAY
FORECASTED MAX TEMP AT RENO (DEG F).....     88          84
FORECASTED TRIGGER TEMPERATURE (DEG F)..     72          67
   EXCEEDED YESTERDAY BY 17Z
FORECASTED MAXIMUM ALTITUDE (FT MSL)....  18000       16800
FORECASTED SOARING INDEX (FPM)..........   1203         984
FORECASTED K-INDEX.........VALID 18Z....     25          23
FORECASTED K-INDEX.........VALID 00Z....     23          18
FORECASTED LIFTED INDEX....VALID 18Z....      2           2
FORECASTED LIFTED INDEX....VALID 00Z....      1           0

AFTERNOON WINDS ALOFT FORECAST
MSL (FT) WIND/TEMP
9000  2606/+15
10000 2506/+12
12000 2506/+06
14000 2608/+00
16000 2711/-05
18000 2818/-10
24000 2917/-22
30000 2926/-38
34000 2840/-48
39000 2851/-61

SLIDE MOUNTAIN DATA:
     DATE       TIME     TEMP  DEWPT   RH         WIND (MPH)
                        (F)   (F)           | DIR  SPEED GUST
2015-05-29    05:50      47    27     46    | 106   15   19
2015-05-29    05:30      46    27     46    | 108   15   19
2015-05-29    05:20      46    27     47    | 106   15   19
2015-05-29    05:00      46    27     47    | 106   15   18

RENO TAF FORECAST:
KRNO 291121Z 2912/3012 VRB04KT P6SM SCT200
     FM291900 14007KT P6SM FEW120 SCT200
     FM292300 29010KT P6SM SCT120 BKN200
     FM300500 VRB04KT P6SM SCT120 SCT200

CARSON CITY TAF FORECAST:
KCXP 291121Z 2912/3012 VRB04KT P6SM SCT200
     FM291900 09008KT P6SM FEW120 SCT200
     FM292200 25010KT P6SM SCT120 BKN200
     FM300400 31004KT P6SM SCT120 SCT200

OUTLOOK FOR THE RENO-CARSON CITY-MINDEN AREA:
.SATURDAY...SUNNY. HIGHS 86 TO 91. LIGHT WINDS BECOMING SOUTHWEST
UP TO 10 MPH IN THE AFTERNOON.

SUNRISE AND SUNSET
MAY 29 2015...........SUNRISE   535 AM PDT   SUNSET   818 PM PDT
MAY 30 2015...........SUNRISE   535 AM PDT   SUNSET   819 PM PDT



USA.gov is the U.S. government's official web portal to all federal, state and local government web resources and services.